sensor_id;sensor_type;location;lat;lon;timestamp;pressure;altitude;pressure_sealevel;temperature;humidity
21658;BME280;10990;48.174;9.782;2022-11-21T00:00:30;91988.16;;;4.08;100.00
21658;BME280;10990;48.174;9.782;2022-11-21T00:02:59;91978.72;;;4.07;100.00
21658;BME280;10990;48.174;9.782;2022-11-21T00:05:26;91976.34;;;4.06;100.00
21658;BME280;10990;48.174;9.782;2022-11-21T00:07:53;91977.53;;;4.03;100.00
21658;BME280;10990;48.174;9.782;2022-11-21T00:10:20;91964.06;;;4.06;100.00
21658;BME280;10990;48.174;9.782;2022-11-21T00:12:52;91942.75;;;4.09;100.00
21658;BME280;10990;48.174;9.782;2022-11-21T00:15:19;91946.94;;;4.10;100.00
21658;BME280;10990;48.174;9.782;2022-11-21T00:17:46;91942.53;;;4.11;100.00
21658;BME280;10990;48.174;9.782;2022-11-21T00:20:14;91941.53;;;4.12;100.00
21658;BME280;10990;48.174;9.782;2022-11-21T00:22:41;91944.56;;;4.09;100.00
21658;BME280;10990;48.174;9.782;2022-11-21T00:25:09;91934.50;;;4.12;100.00
21658;BME280;10990;48.174;9.782;2022-11-21T00:27:35;91931.47;;;4.09;100.00
21658;BME280;10990;48.174;9.782;2022-11-21T00:30:03;91916.19;;;4.12;100.00
21658;BME280;10990;48.174;9.782;2022-11-21T00:32:30;91909.13;;;4.19;100.00
21658;BME280;10990;48.174;9.782;2022-11-21T00:34:57;91910.34;;;4.17;100.00
21658;BME280;10990;48.174;9.782;2022-11-21T00:37:25;91905.13;;;4.17;100.00
21658;BME280;10990;48.174;9.782;2022-11-21T00:39:52;91898.09;;;4.17;100.00
21658;BME280;10990;48.174;9.782;2022-11-21T00:42:19;91891.84;;;4.18;100.00
21658;BME280;10990;48.174;9.782;2022-11-21T00:44:46;91886.00;;;4.16;100.00
21658;BME280;10990;48.174;9.782;2022-11-21T00:47:12;91888.63;;;4.23;100.00
21658;BME280;10990;48.174;9.782;2022-11-21T00:49:39;91890.25;;;4.17;100.00
21658;BME280;10990;48.174;9.782;2022-11-21T00:52:06;91875.53;;;4.23;100.00
21658;BME280;10990;48.174;9.782;2022-11-21T00:54:34;91879.38;;;4.20;100.00
21658;BME280;10990;48.174;9.782;2022-11-21T00:57:01;91867.09;;;4.21;100.00
21658;BME280;10990;48.174;9.782;2022-11-21T00:59:28;91877.16;;;4.24;100.00
21658;BME280;10990;48.174;9.782;2022-11-21T01:01:54;91881.97;;;4.20;100.00
21658;BME280;10990;48.174;9.782;2022-11-21T01:04:21;91869.91;;;4.26;100.00
21658;BME280;10990;48.174;9.782;2022-11-21T01:06:48;91868.47;;;4.30;100.00
21658;BME280;10990;48.174;9.782;2022-11-21T01:09:15;91881.97;;;4.20;100.00
21658;BME280;10990;48.174;9.782;2022-11-21T01:11:43;91882.59;;;4.16;100.00
21658;BME280;10990;48.174;9.782;2022-11-21T01:14:10;91871.34;;;4.09;100.00
21658;BME280;10990;48.174;9.782;2022-11-21T01:16:36;91866.31;;;4.07;100.00
21658;BME280;10990;48.174;9.782;2022-11-21T01:19:03;91878.00;;;3.98;100.00
21658;BME280;10990;48.174;9.782;2022-11-21T01:21:31;91876.38;;;3.97;100.00
21658;BME280;10990;48.174;9.782;2022-11-21T01:23:58;91866.53;;;3.99;100.00
21658;BME280;10990;48.174;9.782;2022-11-21T01:26:27;91866.53;;;3.92;100.00
21658;BME280;10990;48.174;9.782;2022-11-21T01:28:56;91872.19;;;3.89;100.00
21658;BME280;10990;48.174;9.782;2022-11-21T01:31:31;91878.38;;;3.88;100.00
21658;BME280;10990;48.174;9.782;2022-11-21T01:33:59;91870.38;;;3.90;100.00
21658;BME280;10990;48.174;9.782;2022-11-21T01:36:27;91868.94;;;3.87;100.00
21658;BME280;10990;48.174;9.782;2022-11-21T01:38:56;91867.16;;;3.81;100.00
21658;BME280;10990;48.174;9.782;2022-11-21T01:41:25;91871.38;;;3.82;100.00
21658;BME280;10990;48.174;9.782;2022-11-21T01:43:57;91853.28;;;3.87;100.00
21658;BME280;10990;48.174;9.782;2022-11-21T01:46:24;91857.47;;;3.88;100.00
21658;BME280;10990;48.174;9.782;2022-11-21T01:48:53;91845.81;;;3.91;100.00
21658;BME280;10990;48.174;9.782;2022-11-21T01:51:24;91846.25;;;3.94;100.00
21658;BME280;10990;48.174;9.782;2022-11-21T01:53:59;91836.78;;;4.00;100.00
21658;BME280;10990;48.174;9.782;2022-11-21T01:56:28;91822.28;;;4.04;100.00
21658;BME280;10990;48.174;9.782;2022-11-21T01:58:59;91825.88;;;4.10;100.00
21658;BME280;10990;48.174;9.782;2022-11-21T02:01:27;91826.69;;;4.10;100.00
21658;BME280;10990;48.174;9.782;2022-11-21T02:03:56;91836.94;;;4.05;100.00
21658;BME280;10990;48.174;9.782;2022-11-21T02:06:25;91831.13;;;4.10;100.00
21658;BME280;10990;48.174;9.782;2022-11-21T02:08:53;91824.06;;;4.17;100.00
21658;BME280;10990;48.174;9.782;2022-11-21T02:11:26;91815.22;;;4.18;100.00
21658;BME280;10990;48.174;9.782;2022-11-21T02:13:58;91813.63;;;4.17;100.00
21658;BME280;10990;48.174;9.782;2022-11-21T02:16:25;91821.84;;;4.14;100.00
21658;BME280;10990;48.174;9.782;2022-11-21T02:18:52;91808.53;;;4.22;100.00
21658;BME280;10990;48.174;9.782;2022-11-21T02:21:25;91812.97;;;4.21;100.00
21658;BME280;10990;48.174;9.782;2022-11-21T02:24:00;91818.44;;;4.20;100.00
21658;BME280;10990;48.174;9.782;2022-11-21T02:26:32;91820.22;;;4.19;100.00
21658;BME280;10990;48.174;9.782;2022-11-21T02:28:59;91817.22;;;4.22;100.00
21658;BME280;10990;48.174;9.782;2022-11-21T02:31:25;91806.16;;;4.20;100.00
21658;BME280;10990;48.174;9.782;2022-11-21T02:33:52;91805.75;;;4.23;100.00
21658;BME280;10990;48.174;9.782;2022-11-21T02:36:41;91815.97;;;4.25;100.00
21658;BME280;10990;48.174;9.782;2022-11-21T02:39:13;91820.41;;;4.24;100.00
21658;BME280;10990;48.174;9.782;2022-11-21T02:41:45;91812.34;;;4.33;100.00
21658;BME280;10990;48.174;9.782;2022-11-21T02:44:19;91810.13;;;4.30;100.00
21658;BME280;10990;48.174;9.782;2022-11-21T02:46:50;91807.50;;;4.36;100.00
21658;BME280;10990;48.174;9.782;2022-11-21T02:49:23;91809.13;;;4.37;100.00
21658;BME280;10990;48.174;9.782;2022-11-21T02:51:51;91829.25;;;4.30;100.00
21658;BME280;10990;48.174;9.782;2022-11-21T02:54:18;91814.13;;;4.39;100.00
21658;BME280;10990;48.174;9.782;2022-11-21T02:56:46;91807.91;;;4.33;100.00
21658;BME280;10990;48.174;9.782;2022-11-21T02:59:13;91801.06;;;4.32;100.00
21658;BME280;10990;48.174;9.782;2022-11-21T03:01:39;91784.78;;;4.37;100.00
21658;BME280;10990;48.174;9.782;2022-11-21T03:04:06;91794.03;;;4.33;100.00
21658;BME280;10990;48.174;9.782;2022-11-21T03:06:33;91786.00;;;4.27;100.00
21658;BME280;10990;48.174;9.782;2022-11-21T03:09:00;91754.19;;;4.31;100.00
21658;BME280;10990;48.174;9.782;2022-11-21T03:11:26;91760.88;;;4.26;100.00
21658;BME280;10990;48.174;9.782;2022-11-21T03:13:55;91753.44;;;4.23;100.00
21658;BME280;10990;48.174;9.782;2022-11-21T03:16:21;91710.00;;;4.22;100.00
21658;BME280;10990;48.174;9.782;2022-11-21T03:18:48;91729.97;;;4.10;100.00
21658;BME280;10990;48.174;9.782;2022-11-21T03:21:15;91714.91;;;3.99;100.00
21658;BME280;10990;48.174;9.782;2022-11-21T03:23:42;91699.28;;;3.92;100.00
21658;BME280;10990;48.174;9.782;2022-11-21T03:26:08;91673.38;;;3.84;100.00
21658;BME280;10990;48.174;9.782;2022-11-21T03:28:35;91633.38;;;3.84;100.00
21658;BME280;10990;48.174;9.782;2022-11-21T03:31:03;91620.97;;;3.72;100.00
21658;BME280;10990;48.174;9.782;2022-11-21T03:33:30;91594.03;;;3.72;100.00
21658;BME280;10990;48.174;9.782;2022-11-21T03:35:57;91481.91;;;3.70;100.00
21658;BME280;10990;48.174;9.782;2022-11-21T03:38:23;91341.09;;;3.62;100.00
21658;BME280;10990;48.174;9.782;2022-11-21T03:40:50;91214.56;;;3.58;100.00
21658;BME280;10990;48.174;9.782;2022-11-21T03:43:17;91115.97;;;3.53;100.00
21658;BME280;10990;48.174;9.782;2022-11-21T03:45:45;91063.16;;;3.51;100.00
21658;BME280;10990;48.174;9.782;2022-11-21T03:48:14;91053.31;;;3.53;100.00
21658;BME280;10990;48.174;9.782;2022-11-21T03:50:42;91066.81;;;3.50;100.00
21658;BME280;10990;48.174;9.782;2022-11-21T03:53:09;91079.63;;;3.52;100.00
21658;BME280;10990;48.174;9.782;2022-11-21T03:55:36;91078.78;;;3.58;100.00
21658;BME280;10990;48.174;9.782;2022-11-21T03:58:02;91099.66;;;3.58;100.00
21658;BME280;10990;48.174;9.782;2022-11-21T04:00:29;91108.88;;;3.61;100.00
21658;BME280;10990;48.174;9.782;2022-11-21T04:02:56;91100.06;;;3.73;100.00
21658;BME280;10990;48.174;9.782;2022-11-21T04:05:24;91110.50;;;3.73;100.00
21658;BME280;10990;48.174;9.782;2022-11-21T04:07:51;91120.63;;;3.70;100.00
21658;BME280;10990;48.174;9.782;2022-11-21T04:10:18;91118.94;;;3.75;100.00
21658;BME280;10990;48.174;9.782;2022-11-21T04:12:45;91124.75;;;3.77;100.00
21658;BME280;10990;48.174;9.782;2022-11-21T04:15:12;91123.28;;;3.81;100.00
21658;BME280;10990;48.174;9.782;2022-11-21T04:17:39;91139.38;;;3.78;100.00
21658;BME280;10990;48.174;9.782;2022-11-21T04:20:06;91126.03;;;3.87;100.00
21658;BME280;10990;48.174;9.782;2022-11-21T04:22:35;91131.75;;;3.77;100.00
21658;BME280;10990;48.174;9.782;2022-11-21T04:25:02;91110.56;;;3.85;100.00
21658;BME280;10990;48.174;9.782;2022-11-21T04:27:29;91093.00;;;3.92;100.00
21658;BME280;10990;48.174;9.782;2022-11-21T04:29:56;91088.44;;;3.99;100.00
21658;BME280;10990;48.174;9.782;2022-11-21T04:32:22;91086.75;;;4.05;100.00
21658;BME280;10990;48.174;9.782;2022-11-21T04:34:49;91074.84;;;4.09;100.00
21658;BME280;10990;48.174;9.782;2022-11-21T04:37:16;91062.13;;;4.13;100.00
21658;BME280;10990;48.174;9.782;2022-11-21T04:39:44;91053.50;;;4.12;100.00
21658;BME280;10990;48.174;9.782;2022-11-21T04:42:11;91057.56;;;4.08;100.00
21658;BME280;10990;48.174;9.782;2022-11-21T04:44:38;91063.03;;;4.07;100.00
21658;BME280;10990;48.174;9.782;2022-11-21T04:47:04;91048.47;;;4.11;100.00
21658;BME280;10990;48.174;9.782;2022-11-21T04:49:31;91029.53;;;4.15;100.00
21658;BME280;10990;48.174;9.782;2022-11-21T04:51:58;91075.03;;;3.96;100.00
21658;BME280;10990;48.174;9.782;2022-11-21T04:54:25;91050.50;;;3.97;100.00
21658;BME280;10990;48.174;9.782;2022-11-21T04:56:53;91034.72;;;3.92;100.00
21658;BME280;10990;48.174;9.782;2022-11-21T04:59:20;91040.72;;;3.92;100.00
21658;BME280;10990;48.174;9.782;2022-11-21T05:01:46;91050.00;;;3.88;100.00
21658;BME280;10990;48.174;9.782;2022-11-21T05:04:13;91044.72;;;3.95;100.00
21658;BME280;10990;48.174;9.782;2022-11-21T05:06:40;91048.53;;;3.80;100.00
21658;BME280;10990;48.174;9.782;2022-11-21T05:09:07;91054.88;;;3.73;100.00
21658;BME280;10990;48.174;9.782;2022-11-21T05:11:34;91054.38;;;3.64;100.00
21658;BME280;10990;48.174;9.782;2022-11-21T05:14:20;91075.44;;;3.51;100.00
21658;BME280;10990;48.174;9.782;2022-11-21T05:16:46;91089.72;;;3.48;100.00
21658;BME280;10990;48.174;9.782;2022-11-21T05:19:13;91097.41;;;3.43;100.00
21658;BME280;10990;48.174;9.782;2022-11-21T05:21:40;91115.19;;;3.34;100.00
21658;BME280;10990;48.174;9.782;2022-11-21T05:24:07;91121.09;;;3.30;100.00
21658;BME280;10990;48.174;9.782;2022-11-21T05:26:34;91127.69;;;3.32;100.00
21658;BME280;10990;48.174;9.782;2022-11-21T05:29:02;91136.16;;;3.28;100.00
21658;BME280;10990;48.174;9.782;2022-11-21T05:31:30;91140.78;;;3.26;100.00
21658;BME280;10990;48.174;9.782;2022-11-21T05:33:57;91111.59;;;3.35;100.00
21658;BME280;10990;48.174;9.782;2022-11-21T05:36:24;91111.94;;;3.39;100.00
21658;BME280;10990;48.174;9.782;2022-11-21T05:38:50;91104.00;;;3.46;100.00
21658;BME280;10990;48.174;9.782;2022-11-21T05:41:17;91097.66;;;3.42;100.00
21658;BME280;10990;48.174;9.782;2022-11-21T05:43:44;91094.94;;;3.48;100.00
21658;BME280;10990;48.174;9.782;2022-11-21T05:46:10;91092.91;;;3.50;100.00
21658;BME280;10990;48.174;9.782;2022-11-21T05:48:38;91088.19;;;3.59;100.00
21658;BME280;10990;48.174;9.782;2022-11-21T05:51:05;91085.94;;;3.63;100.00
21658;BME280;10990;48.174;9.782;2022-11-21T05:53:33;91070.41;;;3.68;100.00
21658;BME280;10990;48.174;9.782;2022-11-21T05:56:02;91055.75;;;3.67;100.00
21658;BME280;10990;48.174;9.782;2022-11-21T05:58:30;91895.28;;;3.66;100.00
21658;BME280;10990;48.174;9.782;2022-11-21T06:00:57;92120.97;;;3.65;100.00
21658;BME280;10990;48.174;9.782;2022-11-21T06:03:24;92122.16;;;3.62;100.00
21658;BME280;10990;48.174;9.782;2022-11-21T06:06:02;92140.38;;;3.49;100.00
21658;BME280;10990;48.174;9.782;2022-11-21T06:08:31;92148.22;;;3.49;100.00
21658;BME280;10990;48.174;9.782;2022-11-21T06:10:59;92166.75;;;3.54;100.00
21658;BME280;10990;48.174;9.782;2022-11-21T06:13:26;92178.81;;;3.55;100.00
21658;BME280;10990;48.174;9.782;2022-11-21T06:15:58;92179.06;;;3.67;100.00
21658;BME280;10990;48.174;9.782;2022-11-21T06:18:25;92192.16;;;3.67;100.00
21658;BME280;10990;48.174;9.782;2022-11-21T06:20:52;92209.41;;;3.68;100.00
21658;BME280;10990;48.174;9.782;2022-11-21T06:23:21;92227.91;;;3.66;100.00
21658;BME280;10990;48.174;9.782;2022-11-21T06:25:55;92233.50;;;3.63;100.00
21658;BME280;10990;48.174;9.782;2022-11-21T06:28:22;92246.13;;;3.53;100.00
21658;BME280;10990;48.174;9.782;2022-11-21T06:30:49;92249.72;;;3.52;100.00
21658;BME280;10990;48.174;9.782;2022-11-21T06:33:17;92264.78;;;3.50;100.00
21658;BME280;10990;48.174;9.782;2022-11-21T06:35:44;92256.41;;;3.61;100.00
21658;BME280;10990;48.174;9.782;2022-11-21T06:38:11;92270.91;;;3.64;100.00
21658;BME280;10990;48.174;9.782;2022-11-21T06:40:39;92280.69;;;3.55;100.00
21658;BME280;10990;48.174;9.782;2022-11-21T06:43:06;92288.47;;;3.48;100.00
21658;BME280;10990;48.174;9.782;2022-11-21T06:45:33;92283.50;;;3.53;100.00
21658;BME280;10990;48.174;9.782;2022-11-21T06:48:00;92278.53;;;3.65;100.00
21658;BME280;10990;48.174;9.782;2022-11-21T06:50:27;92287.56;;;3.63;100.00
21658;BME280;10990;48.174;9.782;2022-11-21T06:52:56;92298.88;;;3.70;100.00
21658;BME280;10990;48.174;9.782;2022-11-21T06:55:23;92299.66;;;3.64;100.00
21658;BME280;10990;48.174;9.782;2022-11-21T06:57:52;92299.66;;;3.64;100.00
21658;BME280;10990;48.174;9.782;2022-11-21T07:00:19;92309.06;;;3.58;100.00
21658;BME280;10990;48.174;9.782;2022-11-21T07:02:45;92313.66;;;3.56;100.00
21658;BME280;10990;48.174;9.782;2022-11-21T07:05:12;92310.00;;;3.50;100.00
21658;BME280;10990;48.174;9.782;2022-11-21T07:07:39;92305.19;;;3.54;100.00
21658;BME280;10990;48.174;9.782;2022-11-21T07:10:06;92314.41;;;3.50;100.00
21658;BME280;10990;48.174;9.782;2022-11-21T07:12:34;92313.84;;;3.54;100.00
21658;BME280;10990;48.174;9.782;2022-11-21T07:15:20;92302.03;;;3.58;100.00
21658;BME280;10990;48.174;9.782;2022-11-21T07:17:46;92312.41;;;3.52;100.00
21658;BME280;10990;48.174;9.782;2022-11-21T07:20:13;92292.41;;;3.66;100.00
21658;BME280;10990;48.174;9.782;2022-11-21T07:22:40;92303.25;;;3.63;100.00
21658;BME280;10990;48.174;9.782;2022-11-21T07:25:07;92291.06;;;3.76;100.00
21658;BME280;10990;48.174;9.782;2022-11-21T07:27:34;92310.78;;;3.79;100.00
21658;BME280;10990;48.174;9.782;2022-11-21T07:30:01;92302.44;;;3.97;100.00
21658;BME280;10990;48.174;9.782;2022-11-21T07:32:29;92291.44;;;4.01;100.00
21658;BME280;10990;48.174;9.782;2022-11-21T07:34:56;92279.25;;;4.22;100.00
21658;BME280;10990;48.174;9.782;2022-11-21T07:37:23;92275.66;;;4.23;100.00
21658;BME280;10990;48.174;9.782;2022-11-21T07:39:50;92277.66;;;4.27;100.00
21658;BME280;10990;48.174;9.782;2022-11-21T07:42:17;92280.75;;;4.38;100.00
21658;BME280;10990;48.174;9.782;2022-11-21T07:44:44;92274.59;;;4.65;100.00
21658;BME280;10990;48.174;9.782;2022-11-21T07:47:10;92275.84;;;4.76;100.00
21658;BME280;10990;48.174;9.782;2022-11-21T07:49:39;92271.22;;;4.85;100.00
21658;BME280;10990;48.174;9.782;2022-11-21T07:52:06;92282.94;;;5.02;100.00
21658;BME280;10990;48.174;9.782;2022-11-21T07:54:32;92303.25;;;5.00;100.00
21658;BME280;10990;48.174;9.782;2022-11-21T07:56:59;92299.66;;;5.14;100.00
21658;BME280;10990;48.174;9.782;2022-11-21T07:59:26;92300.88;;;5.25;100.00
21658;BME280;10990;48.174;9.782;2022-11-21T08:01:53;92308.75;;;5.52;100.00
21658;BME280;10990;48.174;9.782;2022-11-21T08:04:20;92335.16;;;5.57;100.00
21658;BME280;10990;48.174;9.782;2022-11-21T08:06:49;92302.44;;;6.33;100.00
21658;BME280;10990;48.174;9.782;2022-11-21T08:09:16;92289.50;;;7.21;100.00
21658;BME280;10990;48.174;9.782;2022-11-21T08:11:44;92324.22;;;7.61;100.00
21658;BME280;10990;48.174;9.782;2022-11-21T08:14:11;92343.88;;;8.09;100.00
21658;BME280;10990;48.174;9.782;2022-11-21T08:16:37;92400.84;;;8.22;100.00
21658;BME280;10990;48.174;9.782;2022-11-21T08:19:04;92420.94;;;8.66;100.00
21658;BME280;10990;48.174;9.782;2022-11-21T08:21:31;92454.03;;;9.17;100.00
21658;BME280;10990;48.174;9.782;2022-11-21T08:23:59;92536.44;;;9.13;100.00
21658;BME280;10990;48.174;9.782;2022-11-21T08:26:26;92576.38;;;9.90;100.00
21658;BME280;10990;48.174;9.782;2022-11-21T08:28:53;91699.75;;;10.15;100.00
21658;BME280;10990;48.174;9.782;2022-11-21T08:31:19;91818.72;;;10.86;100.00
21658;BME280;10990;48.174;9.782;2022-11-21T08:33:46;91960.50;;;11.31;100.00
21658;BME280;10990;48.174;9.782;2022-11-21T08:36:13;92084.63;;;12.38;100.00
21658;BME280;10990;48.174;9.782;2022-11-21T08:38:40;92264.47;;;12.95;100.00
21658;BME280;10990;48.174;9.782;2022-11-21T08:41:10;92520.38;;;12.01;100.00
21658;BME280;10990;48.174;9.782;2022-11-21T08:43:55;92638.00;;;11.23;100.00
21658;BME280;10990;48.174;9.782;2022-11-21T08:46:22;92619.72;;;13.30;100.00
21658;BME280;10990;48.174;9.782;2022-11-21T08:48:51;92737.81;;;14.29;100.00
21658;BME280;10990;48.174;9.782;2022-11-21T08:51:18;92887.41;;;14.92;100.00
21658;BME280;10990;48.174;9.782;2022-11-21T08:53:45;93169.97;;;11.15;100.00
21658;BME280;10990;48.174;9.782;2022-11-21T08:56:13;93059.16;;;12.42;100.00
21658;BME280;10990;48.174;9.782;2022-11-21T08:58:40;93075.38;;;14.00;100.00
21658;BME280;10990;48.174;9.782;2022-11-21T09:01:07;93222.94;;;13.91;100.00
21658;BME280;10990;48.174;9.782;2022-11-21T09:03:34;93326.56;;;14.03;100.00
21658;BME280;10990;48.174;9.782;2022-11-21T09:06:00;93365.84;;;15.54;100.00
21658;BME280;10990;48.174;9.782;2022-11-21T09:08:28;93516.97;;;16.05;100.00
21658;BME280;10990;48.174;9.782;2022-11-21T09:10:55;93677.69;;;14.13;100.00
21658;BME280;10990;48.174;9.782;2022-11-21T09:13:23;93640.94;;;14.28;100.00
21658;BME280;10990;48.174;9.782;2022-11-21T09:15:50;93679.59;;;15.94;100.00
21658;BME280;10990;48.174;9.782;2022-11-21T09:18:34;93834.22;;;14.96;100.00
21658;BME280;10990;48.174;9.782;2022-11-21T09:21:01;93895.47;;;15.52;100.00
21658;BME280;10990;48.174;9.782;2022-11-21T09:23:28;93903.34;;;16.25;100.00
21658;BME280;10990;48.174;9.782;2022-11-21T09:25:55;93942.41;;;14.27;100.00
21658;BME280;10990;48.174;9.782;2022-11-21T09:28:21;93866.88;;;11.40;100.00
21658;BME280;10990;48.174;9.782;2022-11-21T09:30:50;93754.53;;;10.34;100.00
21658;BME280;10990;48.174;9.782;2022-11-21T09:33:16;93633.34;;;9.54;100.00
21658;BME280;10990;48.174;9.782;2022-11-21T09:35:43;93559.38;;;9.06;100.00
21658;BME280;10990;48.174;9.782;2022-11-21T09:38:10;93457.94;;;9.43;100.00
21658;BME280;10990;48.174;9.782;2022-11-21T09:40:40;93422.66;;;8.40;100.00
21658;BME280;10990;48.174;9.782;2022-11-21T09:43:33;93369.22;;;7.97;100.00
21658;BME280;10990;48.174;9.782;2022-11-21T09:46:09;93331.63;;;7.53;100.00
21658;BME280;10990;48.174;9.782;2022-11-21T09:48:45;93303.13;;;8.83;100.00
21658;BME280;10990;48.174;9.782;2022-11-21T09:51:16;93381.09;;;7.64;100.00
21658;BME280;10990;48.174;9.782;2022-11-21T09:53:52;93344.66;;;7.83;100.00
21658;BME280;10990;48.174;9.782;2022-11-21T09:56:21;93376.22;;;10.90;100.00
21658;BME280;10990;48.174;9.782;2022-11-21T09:58:59;93466.53;;;9.65;100.00
21658;BME280;10990;48.174;9.782;2022-11-21T10:01:32;93522.84;;;10.34;100.00
21658;BME280;10990;48.174;9.782;2022-11-21T10:04:00;93444.03;;;11.87;100.00
21658;BME280;10990;48.174;9.782;2022-11-21T10:06:29;93560.31;;;13.54;100.00
21658;BME280;10990;48.174;9.782;2022-11-21T10:09:02;93717.56;;;14.13;100.00
21658;BME280;10990;48.174;9.782;2022-11-21T10:11:40;93844.25;;;14.51;100.00
21658;BME280;10990;48.174;9.782;2022-11-21T10:14:29;93984.03;;;13.63;100.00
21658;BME280;10990;48.174;9.782;2022-11-21T10:17:07;94020.16;;;13.78;100.00
21658;BME280;10990;48.174;9.782;2022-11-21T10:19:47;94091.69;;;14.83;100.00
21658;BME280;10990;48.174;9.782;2022-11-21T10:22:28;94084.69;;;14.56;100.00
21658;BME280;10990;48.174;9.782;2022-11-21T10:25:11;94162.06;;;11.58;100.00
21658;BME280;10990;48.174;9.782;2022-11-21T10:27:42;93987.59;;;12.77;100.00
21658;BME280;10990;48.174;9.782;2022-11-21T10:30:15;93997.94;;;14.10;100.00
21658;BME280;10990;48.174;9.782;2022-11-21T10:32:46;94138.63;;;12.79;100.00
21658;BME280;10990;48.174;9.782;2022-11-21T10:35:16;94074.75;;;10.87;100.00
21658;BME280;10990;48.174;9.782;2022-11-21T10:37:48;93932.84;;;10.44;100.00
21658;BME280;10990;48.174;9.782;2022-11-21T10:40:25;93841.22;;;10.51;100.00
21658;BME280;10990;48.174;9.782;2022-11-21T10:42:58;93788.72;;;9.64;100.00
21658;BME280;10990;48.174;9.782;2022-11-21T10:45:46;93725.69;;;9.54;100.00
21658;BME280;10990;48.174;9.782;2022-11-21T10:48:13;93709.28;;;8.88;100.00
21658;BME280;10990;48.174;9.782;2022-11-21T10:50:49;93635.94;;;9.19;100.00
21658;BME280;10990;48.174;9.782;2022-11-21T10:53:21;93571.72;;;9.34;100.00
21658;BME280;10990;48.174;9.782;2022-11-21T10:56:09;93487.75;;;9.92;100.00
21658;BME280;10990;48.174;9.782;2022-11-21T10:58:41;93471.34;;;10.03;100.00
21658;BME280;10990;48.174;9.782;2022-11-21T11:01:18;93486.03;;;9.71;100.00
21658;BME280;10990;48.174;9.782;2022-11-21T11:04:04;93475.97;;;9.40;100.00
21658;BME280;10990;48.174;9.782;2022-11-21T11:06:31;93482.19;;;9.19;100.00
21658;BME280;10990;48.174;9.782;2022-11-21T11:08:58;93480.34;;;9.19;100.00
21658;BME280;10990;48.174;9.782;2022-11-21T11:11:25;93462.66;;;9.13;100.00
21658;BME280;10990;48.174;9.782;2022-11-21T11:13:56;93404.09;;;9.18;100.00
21658;BME280;10990;48.174;9.782;2022-11-21T11:16:25;93407.28;;;8.72;100.00
21658;BME280;10990;48.174;9.782;2022-11-21T11:18:58;93355.31;;;9.01;100.00
21658;BME280;10990;48.174;9.782;2022-11-21T11:21:27;93329.41;;;9.11;100.00
21658;BME280;10990;48.174;9.782;2022-11-21T11:24:17;93321.50;;;9.11;100.00
21658;BME280;10990;48.174;9.782;2022-11-21T11:26:51;93317.81;;;9.05;100.00
21658;BME280;10990;48.174;9.782;2022-11-21T11:29:19;93303.66;;;9.19;100.00
21658;BME280;10990;48.174;9.782;2022-11-21T11:31:51;93301.59;;;9.15;100.00
21658;BME280;10990;48.174;9.782;2022-11-21T11:34:22;93263.91;;;9.28;100.00
21658;BME280;10990;48.174;9.782;2022-11-21T11:36:55;93274.03;;;9.17;100.00
21658;BME280;10990;48.174;9.782;2022-11-21T11:39:39;93249.94;;;9.27;100.00
21658;BME280;10990;48.174;9.782;2022-11-21T11:42:19;93251.31;;;9.16;100.00
21658;BME280;10990;48.174;9.782;2022-11-21T11:45:26;93250.13;;;9.26;100.00
21658;BME280;10990;48.174;9.782;2022-11-21T11:48:14;93271.38;;;9.11;100.00
21658;BME280;10990;48.174;9.782;2022-11-21T11:50:47;93267.75;;;9.18;100.00
21658;BME280;10990;48.174;9.782;2022-11-21T11:53:17;93261.09;;;9.36;100.00
21658;BME280;10990;48.174;9.782;2022-11-21T11:55:50;93291.69;;;9.10;100.00
21658;BME280;10990;48.174;9.782;2022-11-21T11:58:24;93304.44;;;9.07;100.00
21658;BME280;10990;48.174;9.782;2022-11-21T12:00:58;93292.75;;;9.29;100.00
21658;BME280;10990;48.174;9.782;2022-11-21T12:03:33;93295.97;;;9.25;100.00
21658;BME280;10990;48.174;9.782;2022-11-21T12:06:08;93284.19;;;9.14;100.00
21658;BME280;10990;48.174;9.782;2022-11-21T12:08:45;93280.38;;;9.30;100.00
21658;BME280;10990;48.174;9.782;2022-11-21T12:11:27;93275.91;;;9.30;100.00
21658;BME280;10990;48.174;9.782;2022-11-21T12:14:17;93326.94;;;8.61;100.00
21658;BME280;10990;48.174;9.782;2022-11-21T12:17:00;93334.66;;;8.63;100.00
21658;BME280;10990;48.174;9.782;2022-11-21T12:19:30;93342.38;;;8.64;100.00
21658;BME280;10990;48.174;9.782;2022-11-21T12:21:59;93313.13;;;8.94;100.00
21658;BME280;10990;48.174;9.782;2022-11-21T12:24:31;93314.31;;;8.91;100.00
21658;BME280;10990;48.174;9.782;2022-11-21T12:27:05;93328.94;;;8.94;100.00
21658;BME280;10990;48.174;9.782;2022-11-21T12:29:46;93359.44;;;8.68;100.00
21658;BME280;10990;48.174;9.782;2022-11-21T12:32:31;93376.81;;;8.63;100.00
21658;BME280;10990;48.174;9.782;2022-11-21T12:35:25;93333.34;;;8.80;100.00
21658;BME280;10990;48.174;9.782;2022-11-21T12:38:04;93315.03;;;8.72;100.00
21658;BME280;10990;48.174;9.782;2022-11-21T12:40:42;93307.31;;;8.64;100.00
21658;BME280;10990;48.174;9.782;2022-11-21T12:43:21;93289.06;;;8.62;100.00
21658;BME280;10990;48.174;9.782;2022-11-21T12:45:54;93301.22;;;8.63;100.00
21658;BME280;10990;48.174;9.782;2022-11-21T12:48:45;93282.56;;;9.13;100.00
21658;BME280;10990;48.174;9.782;2022-11-21T12:51:42;93286.03;;;9.40;100.00
21658;BME280;10990;48.174;9.782;2022-11-21T12:54:59;93353.19;;;9.31;100.00
21658;BME280;10990;48.174;9.782;2022-11-21T12:57:37;93348.94;;;9.30;100.00
21658;BME280;10990;48.174;9.782;2022-11-21T13:00:12;93359.31;;;9.38;100.00
21658;BME280;10990;48.174;9.782;2022-11-21T13:03:05;93383.88;;;9.38;100.00
21658;BME280;10990;48.174;9.782;2022-11-21T13:05:45;93425.22;;;9.31;100.00
21658;BME280;10990;48.174;9.782;2022-11-21T13:08:15;93429.03;;;9.22;100.00
21658;BME280;10990;48.174;9.782;2022-11-21T13:10:51;93423.84;;;9.35;100.00
21658;BME280;10990;48.174;9.782;2022-11-21T13:13:41;93455.50;;;9.42;100.00
21658;BME280;10990;48.174;9.782;2022-11-21T13:16:16;93466.50;;;9.52;100.00